createdAt,value
2019-02-08T00:00:20.499Z,95828.41
2019-02-08T00:02:49.083Z,95827.12
2019-02-08T00:05:17.723Z,95824.31
2019-02-08T00:07:46.406Z,95829.92
2019-02-08T00:10:17.144Z,95836.78
2019-02-08T00:12:45.732Z,95823.45
2019-02-08T00:15:23.021Z,95827.65
2019-02-08T00:17:51.607Z,95837.88
2019-02-08T00:20:21.091Z,95838.52
2019-02-08T00:22:49.692Z,95840.94
2019-02-08T00:25:24.172Z,95839.27
2019-02-08T00:27:52.763Z,95841.98
2019-02-08T00:30:25.958Z,95833.88
2019-02-08T00:32:54.651Z,95828.62
2019-02-08T00:35:23.273Z,95827.59
2019-02-08T00:37:51.895Z,95836.23
2019-02-08T00:40:21.975Z,95834.33
2019-02-08T00:42:50.560Z,95829.52
2019-02-08T00:45:20.430Z,95833.48
2019-02-08T00:47:49.009Z,95833.04
2019-02-08T00:50:26.848Z,95837.19
2019-02-08T00:52:55.490Z,95829.71
2019-02-08T00:55:24.129Z,95829.02
2019-02-08T00:57:52.711Z,95833.46
2019-02-08T01:00:21.464Z,95831.55
2019-02-08T01:02:51.526Z,95825.49
2019-02-08T01:05:28.384Z,95823.40
2019-02-08T01:07:57.030Z,95820.61
2019-02-08T01:10:31.068Z,95817.60
2019-02-08T01:13:00.501Z,95819.36
2019-02-08T01:15:30.527Z,95815.25
2019-02-08T01:18:02.076Z,95812.70
2019-02-08T01:20:30.660Z,95818.00
2019-02-08T01:22:59.253Z,95813.03
2019-02-08T01:25:29.139Z,95814.59
2019-02-08T01:27:57.724Z,95813.53
2019-02-08T01:30:29.429Z,95814.75
2019-02-08T01:32:58.014Z,95814.16
2019-02-08T01:35:26.675Z,95819.19
2019-02-08T01:37:55.360Z,95805.75
2019-02-08T01:40:26.152Z,95810.75
2019-02-08T01:42:54.736Z,95818.05
2019-02-08T01:45:25.237Z,95813.86
2019-02-08T01:47:53.822Z,95807.95
2019-02-08T01:50:24.206Z,95814.38
2019-02-08T01:52:52.794Z,95811.34
2019-02-08T01:55:21.381Z,95811.41
2019-02-08T01:57:50.801Z,95817.50
2019-02-08T02:00:31.265Z,95819.30
2019-02-08T02:02:59.953Z,95812.17
2019-02-08T02:05:28.640Z,95818.27
2019-02-08T02:07:57.222Z,95811.37
2019-02-08T02:10:33.307Z,95808.44
2019-02-08T02:13:01.898Z,95813.06
2019-02-08T02:15:30.500Z,95817.02
2019-02-08T02:17:59.090Z,95815.70
2019-02-08T02:20:29.902Z,95818.52
2019-02-08T02:22:58.487Z,95822.36
2019-02-08T02:25:27.096Z,95817.27
2019-02-08T02:27:55.690Z,95816.94
2019-02-08T02:30:32.314Z,95809.52
2019-02-08T02:33:00.895Z,95804.28
2019-02-08T02:35:29.514Z,95797.90
2019-02-08T02:37:58.144Z,95800.13
2019-02-08T02:40:26.814Z,95794.05
2019-02-08T02:42:55.395Z,95787.16
2019-02-08T02:45:26.120Z,95785.77
2019-02-08T02:47:54.714Z,95795.77
2019-02-08T02:50:23.299Z,95793.75
2019-02-08T02:52:51.922Z,95787.73
2019-02-08T02:55:25.229Z,95783.36
2019-02-08T02:57:53.863Z,95788.53
2019-02-08T03:00:25.302Z,95789.16
2019-02-08T03:02:53.941Z,95784.11
2019-02-08T03:05:22.602Z,95782.60
2019-02-08T03:07:51.184Z,95777.75
2019-02-08T03:10:21.566Z,95773.61
2019-02-08T03:12:50.150Z,95770.42
2019-02-08T03:15:20.237Z,95771.41
2019-02-08T03:17:48.826Z,95776.09
2019-02-08T03:20:19.005Z,95771.23
2019-02-08T03:22:47.687Z,95773.09
2019-02-08T03:25:21.781Z,95771.10
2019-02-08T03:27:50.380Z,95762.45
2019-02-08T03:30:33.549Z,95756.91
2019-02-08T03:33:02.116Z,95763.78
2019-02-08T03:35:30.755Z,95758.86
2019-02-08T03:37:59.374Z,95764.32
2019-02-08T03:40:29.796Z,95763.20
2019-02-08T03:42:58.376Z,95765.25
2019-02-08T03:45:28.526Z,95766.13
2019-02-08T03:47:57.110Z,95769.73
2019-02-08T03:50:25.691Z,95768.41
2019-02-08T03:52:54.864Z,95769.16
2019-02-08T03:55:24.154Z,95760.80
2019-02-08T03:57:52.731Z,95762.09
2019-02-08T04:00:28.092Z,95756.74
2019-02-08T04:02:56.770Z,95756.89
2019-02-08T04:05:25.352Z,95754.18
2019-02-08T04:07:54.076Z,95750.59
2019-02-08T04:10:22.731Z,95749.38
2019-02-08T04:12:51.347Z,95747.43
2019-02-08T04:15:24.223Z,95751.87
2019-02-08T04:17:52.805Z,95742.30
2019-02-08T04:20:26.299Z,95738.12
2019-02-08T04:22:55.824Z,95734.60
2019-02-08T04:25:24.952Z,95733.65
2019-02-08T04:27:53.635Z,95731.45
2019-02-08T04:30:27.164Z,95726.91
2019-02-08T04:32:55.749Z,95726.09
2019-02-08T04:35:24.387Z,95715.86
2019-02-08T04:37:52.971Z,95714.33
2019-02-08T04:40:23.149Z,95723.09
2019-02-08T04:42:51.774Z,95718.63
2019-02-08T04:45:20.539Z,95711.26
2019-02-08T04:47:49.112Z,95712.54
2019-02-08T04:50:20.817Z,95721.51
2019-02-08T04:52:49.400Z,95728.52
2019-02-08T04:55:18.101Z,95724.45
2019-02-08T04:57:46.680Z,95718.18
2019-02-08T05:00:23.614Z,95720.70
2019-02-08T05:02:52.195Z,95720.38
2019-02-08T05:05:20.785Z,95719.66
2019-02-08T05:07:50.543Z,95713.62
2019-02-08T05:10:23.956Z,95718.42
2019-02-08T05:12:52.577Z,95721.08
2019-02-08T05:15:22.985Z,95713.67
2019-02-08T05:17:51.503Z,95707.21
2019-02-08T05:20:22.181Z,95702.89
2019-02-08T05:22:50.768Z,95697.48
2019-02-08T05:25:19.351Z,95697.53
2019-02-08T05:27:47.936Z,95693.77
2019-02-08T05:30:34.297Z,95691.78
2019-02-08T05:33:02.887Z,95689.36
2019-02-08T05:35:31.525Z,95691.30
2019-02-08T05:41:40.486Z,95685.66
2019-02-08T05:44:09.597Z,95680.15
2019-02-08T05:46:38.230Z,95684.20
2019-02-08T05:49:08.011Z,95684.25
2019-02-08T05:51:36.595Z,95680.08
2019-02-08T05:54:05.231Z,95675.27
2019-02-08T05:56:33.816Z,95673.78
2019-02-08T05:59:02.401Z,95683.94
2019-02-08T06:01:30.984Z,95676.13
2019-02-08T06:03:59.560Z,95678.15
2019-02-08T06:06:28.135Z,95673.27
2019-02-08T06:08:56.720Z,95670.16
2019-02-08T06:11:25.310Z,95672.10
2019-02-08T06:13:53.907Z,95674.23
2019-02-08T06:16:22.577Z,95670.56
2019-02-08T06:19:04.932Z,95676.88
2019-02-08T06:21:33.608Z,95682.53
2019-02-08T06:24:02.194Z,95683.53
2019-02-08T06:26:30.841Z,95684.71
2019-02-08T06:28:59.428Z,95687.56
2019-02-08T06:31:28.008Z,95689.13
2019-02-08T06:33:56.705Z,95688.78
2019-02-08T06:36:25.289Z,95683.59
2019-02-08T06:38:53.868Z,95684.88
2019-02-08T06:41:22.457Z,95691.95
2019-02-08T06:43:51.044Z,95686.09
2019-02-08T06:46:19.619Z,95681.47
2019-02-08T06:48:48.197Z,95676.97
2019-02-08T06:51:16.779Z,95688.66
2019-02-08T06:53:45.401Z,95686.20
2019-02-08T06:56:15.629Z,95687.25
2019-02-08T06:58:48.825Z,95698.03
2019-02-08T07:01:22.352Z,95698.11
2019-02-08T07:03:52.504Z,95703.11
2019-02-08T07:06:25.451Z,95704.27
2019-02-08T07:09:10.548Z,95709.78
2019-02-08T07:11:40.703Z,95709.83
2019-02-08T07:14:13.300Z,95709.41
2019-02-08T07:16:59.904Z,95712.81
2019-02-08T07:19:42.188Z,95713.73
2019-02-08T07:22:28.440Z,95717.70
2019-02-08T07:24:58.611Z,95717.39
2019-02-08T07:27:29.568Z,95727.36
2019-02-08T07:29:59.795Z,95730.30
2019-02-08T07:32:32.688Z,95721.77
2019-02-08T07:35:05.680Z,95722.46
2019-02-08T07:37:48.236Z,95716.64
2019-02-08T07:40:42.738Z,95718.48
2019-02-08T07:43:13.095Z,95726.52
2019-02-08T07:45:52.248Z,95724.50
2019-02-08T07:48:22.400Z,95720.47
2019-02-08T07:50:55.588Z,95719.07
2019-02-08T07:53:31.641Z,95727.58
2019-02-08T07:56:10.716Z,95718.89
2019-02-08T07:58:40.879Z,95723.36
2019-02-08T08:01:15.007Z,95719.36
2019-02-08T08:03:45.167Z,95727.06
2019-02-08T08:06:33.668Z,95723.20
2019-02-08T08:09:09.596Z,95723.29
2019-02-08T08:11:48.332Z,95730.28
2019-02-08T08:14:30.637Z,95732.63
2019-02-08T08:17:06.950Z,95731.80
2019-02-08T08:19:40.064Z,95726.88
2019-02-08T08:22:20.105Z,95738.08
2019-02-08T08:25:06.518Z,95753.14
2019-02-08T08:27:48.944Z,95750.99
2019-02-08T08:30:25.475Z,95739.84
2019-02-08T08:32:57.279Z,95744.33
2019-02-08T08:35:32.005Z,95737.32
2019-02-08T08:38:18.630Z,95733.16
2019-02-08T08:41:02.203Z,95724.81
2019-02-08T08:43:49.093Z,95730.52
2019-02-08T08:46:29.510Z,95736.94
2019-02-08T08:49:07.078Z,95734.59
2019-02-08T08:51:44.899Z,95744.38
2019-02-08T08:54:42.615Z,95743.75
2019-02-08T08:57:23.380Z,95748.56
2019-02-08T09:00:16.255Z,95742.31
2019-02-08T09:03:07.391Z,95736.14
2019-02-08T09:05:45.030Z,95734.27
2019-02-08T09:08:25.697Z,95732.77
2019-02-08T09:11:09.217Z,95737.95
2019-02-08T09:14:08.255Z,95742.99
2019-02-08T09:16:49.051Z,95744.66
2019-02-08T09:19:43.409Z,95747.89
2019-02-08T09:22:33.007Z,95750.95
2019-02-08T09:25:16.634Z,95751.97
2019-02-08T09:28:17.250Z,95742.34
2019-02-08T09:31:10.119Z,95733.34
2019-02-08T09:33:58.596Z,95727.69
2019-02-08T09:36:59.243Z,95720.14
2019-02-08T09:39:51.965Z,95721.10
2019-02-08T09:42:57.185Z,95706.31
2019-02-08T09:45:38.565Z,95703.78
2019-02-08T09:48:39.989Z,95698.32
2019-02-08T09:51:36.034Z,95697.69
2019-02-08T09:54:42.301Z,95690.92
2019-02-08T09:57:48.204Z,95695.44
2019-02-08T10:00:28.936Z,95688.06
2019-02-08T10:03:27.723Z,95688.07
2019-02-08T10:06:22.116Z,95687.73
2019-02-08T10:09:17.925Z,95691.30
2019-02-08T10:11:52.115Z,95683.59
2019-02-08T10:14:29.915Z,95685.17
2019-02-08T10:17:16.495Z,95684.84
2019-02-08T10:20:03.491Z,95680.34
2019-02-08T10:23:08.512Z,95676.48
2019-02-08T10:26:05.852Z,95676.00
2019-02-08T10:28:52.780Z,95679.41
2019-02-08T10:31:27.313Z,95679.25
2019-02-08T10:34:33.843Z,95674.28
2019-02-08T10:37:38.817Z,95675.39
2019-02-08T10:40:40.308Z,95672.00
2019-02-08T10:43:12.965Z,95665.09
2019-02-08T10:46:13.741Z,95667.98
2019-02-08T10:48:54.492Z,95663.80
2019-02-08T10:51:51.910Z,95672.30
2019-02-08T10:54:42.595Z,95656.52
2019-02-08T10:57:31.883Z,95655.25
2019-02-08T11:00:25.649Z,95649.72
2019-02-08T11:03:13.851Z,95642.01
2019-02-08T11:06:19.835Z,95637.11
2019-02-08T11:09:15.853Z,95632.91
2019-02-08T11:12:11.687Z,95633.22
2019-02-08T11:15:07.511Z,95626.07
2019-02-08T11:17:54.047Z,95614.10
2019-02-08T11:20:22.628Z,95605.28
2019-02-08T11:22:51.211Z,95596.50
2019-02-08T11:25:19.821Z,95592.81
2019-02-08T11:27:48.408Z,95596.37
2019-02-08T11:30:17.787Z,95588.27
2019-02-08T11:32:46.415Z,95576.98
2019-02-08T11:35:15.555Z,95564.52
2019-02-08T11:37:44.490Z,95571.16
2019-02-08T11:40:16.187Z,95571.36
2019-02-08T11:42:44.773Z,95570.97
2019-02-08T11:45:15.005Z,95574.75
2019-02-08T11:47:43.591Z,95571.92
2019-02-08T11:50:20.750Z,95573.43
2019-02-08T11:52:49.327Z,95561.09
2019-02-08T11:55:17.908Z,95560.36
2019-02-08T11:57:46.487Z,95560.36
2019-02-08T12:00:23.102Z,95557.81
2019-02-08T12:02:51.682Z,95552.37
2019-02-08T12:05:20.351Z,95548.67
2019-02-08T12:07:48.926Z,95552.59
2019-02-08T12:10:17.503Z,95547.55
2019-02-08T12:12:46.085Z,95549.13
2019-02-08T12:15:17.368Z,95544.36
2019-02-08T12:17:45.944Z,95539.36
2019-02-08T12:20:14.522Z,95537.94
2019-02-08T12:22:43.103Z,95538.79
2019-02-08T12:25:16.144Z,95527.65
2019-02-08T12:27:44.728Z,95535.84
2019-02-08T12:30:31.302Z,95532.97
2019-02-08T12:32:59.912Z,95532.31
2019-02-08T12:35:28.501Z,95534.36
2019-02-08T12:37:57.130Z,95531.05
2019-02-08T12:40:25.750Z,95524.38
2019-02-08T12:42:54.331Z,95525.42
2019-02-08T12:45:22.912Z,95516.24
2019-02-08T12:47:51.496Z,95520.98
2019-02-08T12:50:20.072Z,95510.21
2019-02-08T12:52:48.653Z,95495.75
2019-02-08T12:55:18.781Z,95469.29
2019-02-08T12:57:47.361Z,95469.29
2019-02-08T13:00:18.539Z,95476.55
2019-02-08T13:02:47.123Z,95477.44
2019-02-08T13:05:16.811Z,95477.67
2019-02-08T13:07:45.394Z,95469.08
2019-02-08T13:10:19.718Z,95472.75
2019-02-08T13:12:48.299Z,95471.83
2019-02-08T13:15:17.005Z,95470.81
2019-02-08T13:17:45.587Z,95451.64
2019-02-08T13:20:21.969Z,95449.69
2019-02-08T13:22:50.584Z,95450.22
2019-02-08T13:25:19.165Z,95440.17
2019-02-08T13:27:48.848Z,95438.86
2019-02-08T13:30:26.019Z,95436.80
2019-02-08T13:32:54.604Z,95432.59
2019-02-08T13:35:23.189Z,95436.88
2019-02-08T13:37:51.774Z,95433.82
2019-02-08T13:40:27.706Z,95424.23
2019-02-08T13:42:56.321Z,95425.06
2019-02-08T13:45:25.090Z,95414.84
2019-02-08T13:47:53.664Z,95401.02
2019-02-08T13:50:30.527Z,95395.50
2019-02-08T13:52:59.325Z,95398.94
2019-02-08T13:55:27.942Z,95401.39
2019-02-08T13:57:56.524Z,95405.47
2019-02-08T14:00:30.425Z,95418.14
2019-02-08T14:02:59.014Z,95409.32
2019-02-08T14:05:27.604Z,95405.72
2019-02-08T14:07:56.175Z,95411.05
2019-02-08T14:10:24.759Z,95404.70
2019-02-08T14:12:53.453Z,95399.03
2019-02-08T14:15:23.874Z,95399.30
2019-02-08T14:17:52.461Z,95402.51
2019-02-08T14:20:25.641Z,95397.36
2019-02-08T14:22:54.214Z,95393.17
2019-02-08T14:25:22.821Z,95392.39
2019-02-08T14:27:51.401Z,95391.55
2019-02-08T14:30:31.591Z,95380.89
2019-02-08T14:33:00.170Z,95366.53
2019-02-08T14:35:28.854Z,95363.85
2019-02-08T14:37:58.714Z,95365.70
2019-02-08T14:40:28.896Z,95369.04
2019-02-08T14:42:57.478Z,95367.30
2019-02-08T14:45:26.154Z,95359.22
2019-02-08T14:47:54.792Z,95353.31
2019-02-08T14:50:28.549Z,95355.52
2019-02-08T14:52:57.633Z,95351.80
2019-02-08T14:55:26.211Z,95358.52
2019-02-08T14:57:57.465Z,95359.81
2019-02-08T15:00:26.041Z,95354.63
2019-02-08T15:02:54.632Z,95356.52
2019-02-08T15:05:23.812Z,95358.36
2019-02-08T15:07:52.392Z,95355.46
2019-02-08T15:10:35.854Z,95347.62
2019-02-08T15:13:04.432Z,95346.34
2019-02-08T15:15:33.010Z,95343.06
2019-02-08T15:18:01.637Z,95341.84
2019-02-08T15:20:36.176Z,95340.00
2019-02-08T15:23:04.859Z,95337.28
2019-02-08T15:25:33.496Z,95339.44
2019-02-08T15:28:02.071Z,95352.70
2019-02-08T15:30:34.658Z,95351.62
2019-02-08T15:33:03.247Z,95352.02
2019-02-08T15:35:31.930Z,95349.12
2019-02-08T15:38:00.589Z,95349.30
2019-02-08T15:40:34.733Z,95345.80
2019-02-08T15:43:03.321Z,95336.80
2019-02-08T15:45:31.907Z,95329.41
2019-02-08T15:48:00.489Z,95335.44
2019-02-08T15:50:29.188Z,95331.05
2019-02-08T15:52:58.008Z,95335.20
2019-02-08T15:55:29.450Z,95332.84
2019-02-08T15:57:58.035Z,95324.23
2019-02-08T16:00:28.850Z,95331.48
2019-02-08T16:02:57.545Z,95332.65
2019-02-08T16:05:26.226Z,95335.30
2019-02-08T16:07:54.809Z,95327.73
2019-02-08T16:10:23.389Z,95325.12
2019-02-08T16:12:51.978Z,95327.04
2019-02-08T16:15:29.414Z,95325.22
2019-02-08T16:17:57.990Z,95318.66
2019-02-08T16:20:30.709Z,95315.88
2019-02-08T16:23:00.126Z,95321.00
2019-02-08T16:25:31.966Z,95320.18
2019-02-08T16:28:00.640Z,95316.88
2019-02-08T16:30:31.622Z,95320.45
2019-02-08T16:33:00.505Z,95320.45
2019-02-08T16:35:29.088Z,95318.18
2019-02-08T16:37:57.671Z,95321.34
2019-02-08T16:40:30.159Z,95315.37
2019-02-08T16:42:58.852Z,95324.06
2019-02-08T16:45:32.839Z,95329.34
2019-02-08T16:48:02.136Z,95330.25
2019-02-08T16:50:32.320Z,95330.45
2019-02-08T16:53:00.906Z,95320.52
2019-02-08T16:55:29.548Z,95337.25
2019-02-08T16:57:58.260Z,95332.84
2019-02-08T17:00:32.435Z,95332.05
2019-02-08T17:03:02.616Z,95337.58
2019-02-08T17:05:31.517Z,95339.70
2019-02-08T17:08:00.103Z,95342.11
2019-02-08T17:10:28.683Z,95342.73
2019-02-08T17:12:57.271Z,95341.38
2019-02-08T17:15:30.737Z,95349.25
2019-02-08T17:17:59.417Z,95346.08
2019-02-08T17:20:33.288Z,95346.77
2019-02-08T17:23:01.873Z,95350.26
2019-02-08T17:25:31.493Z,95354.84
2019-02-08T17:28:00.606Z,95356.63
2019-02-08T17:30:29.192Z,95357.08
2019-02-08T17:32:57.772Z,95350.34
2019-02-08T17:35:28.011Z,95352.64
2019-02-08T17:37:56.597Z,95353.00
2019-02-08T17:40:33.512Z,95352.34
2019-02-08T17:43:02.111Z,95362.19
2019-02-08T17:45:30.721Z,95362.19
2019-02-08T17:48:00.400Z,95354.44
2019-02-08T17:50:29.160Z,95357.03
2019-02-08T17:52:58.199Z,95358.52
2019-02-08T17:55:30.736Z,95356.07
2019-02-08T17:58:03.718Z,95349.28
2019-02-08T18:00:45.582Z,95352.48
2019-02-08T18:03:14.234Z,95353.46
2019-02-08T18:05:42.920Z,95354.28
2019-02-08T18:08:11.713Z,95358.00
2019-02-08T18:10:40.303Z,95363.81
2019-02-08T18:13:09.569Z,95353.70
2019-02-08T18:15:38.163Z,95360.63
2019-02-08T18:18:10.044Z,95358.06
2019-02-08T18:20:53.486Z,95351.13
2019-02-08T18:23:22.064Z,95359.67
2019-02-08T18:25:50.653Z,95356.45
2019-02-08T18:28:19.224Z,95357.08
2019-02-08T18:30:47.982Z,95359.98
2019-02-08T18:33:16.807Z,95355.47
2019-02-08T18:35:45.363Z,95360.72
2019-02-08T18:38:13.956Z,95360.32
2019-02-08T18:40:42.539Z,95358.53
2019-02-08T18:43:11.868Z,95364.34
2019-02-08T18:45:40.455Z,95364.98
2019-02-08T18:48:09.985Z,95367.92
2019-02-08T18:50:41.343Z,95369.63
2019-02-08T18:53:10.987Z,95376.35
2019-02-08T18:55:39.580Z,95374.41
2019-02-08T18:58:08.479Z,95368.05
2019-02-08T19:00:45.661Z,95373.42
2019-02-08T19:03:14.308Z,95367.66
2019-02-08T19:05:42.929Z,95378.25
2019-02-08T19:08:11.682Z,95368.88
2019-02-08T19:10:40.265Z,95379.84
2019-02-08T19:13:09.713Z,95376.48
2019-02-08T19:15:38.399Z,95371.83
2019-02-08T19:18:07.463Z,95375.66
2019-02-08T19:20:36.083Z,95374.49
2019-02-08T19:23:04.964Z,95372.39
2019-02-08T19:25:39.020Z,95371.36
2019-02-08T19:28:08.039Z,95371.70
2019-02-08T19:30:41.863Z,95369.45
2019-02-08T19:33:11.600Z,95374.08
2019-02-08T19:35:40.238Z,95374.03
2019-02-08T19:38:09.074Z,95373.99
2019-02-08T19:40:46.876Z,95379.48
2019-02-08T19:43:15.496Z,95379.86
2019-02-08T19:45:44.114Z,95379.02
2019-02-08T19:48:12.729Z,95389.96
2019-02-08T19:50:43.010Z,95394.17
2019-02-08T19:53:11.848Z,95395.78
2019-02-08T19:55:40.636Z,95389.64
2019-02-08T19:58:10.576Z,95387.98
2019-02-08T20:00:44.129Z,95380.95
2019-02-08T20:03:12.711Z,95377.24
2019-02-08T20:05:41.294Z,95375.47
2019-02-08T20:08:12.333Z,95372.59
2019-02-08T20:10:43.414Z,95366.81
2019-02-08T20:13:11.997Z,95363.22
2019-02-08T20:15:40.576Z,95366.09
2019-02-08T20:18:09.944Z,95368.03
2019-02-08T20:20:38.564Z,95370.95
2019-02-08T20:23:07.997Z,95380.30
2019-02-08T20:25:37.217Z,95375.64
2019-02-08T20:28:06.619Z,95374.19
2019-02-08T20:30:35.233Z,95382.89
2019-02-08T20:33:03.847Z,95381.61
2019-02-08T20:35:32.487Z,95378.05
2019-02-08T20:38:01.473Z,95379.66
2019-02-08T20:40:35.134Z,95379.98
2019-02-08T20:43:03.713Z,95377.59
2019-02-08T20:45:33.579Z,95378.39
2019-02-08T20:48:04.527Z,95383.83
2019-02-08T20:50:33.122Z,95383.83
2019-02-08T20:53:01.805Z,95395.39
2019-02-08T20:55:31.071Z,95416.02
2019-02-08T20:57:59.642Z,95416.02
2019-02-08T21:00:31.799Z,95449.14
2019-02-08T21:03:00.903Z,95421.80
2019-02-08T21:05:30.524Z,95415.04
2019-02-08T21:07:59.146Z,95406.66
2019-02-08T21:10:27.830Z,95407.95
2019-02-08T21:12:56.455Z,95408.62
2019-02-08T21:15:25.204Z,95400.92
2019-02-08T21:17:53.788Z,95395.12
2019-02-08T21:20:22.372Z,95390.28
2019-02-08T21:22:51.057Z,95377.05
2019-02-08T21:25:28.869Z,95375.47
2019-02-08T21:27:57.463Z,95369.83
2019-02-08T21:30:26.042Z,95374.19
2019-02-08T21:32:54.675Z,95378.05
2019-02-08T21:35:23.293Z,95385.11
2019-02-08T21:37:51.868Z,95386.72
2019-02-08T21:40:22.911Z,95389.92
2019-02-08T21:42:51.564Z,95389.56
2019-02-08T21:45:23.301Z,95399.23
2019-02-08T21:47:51.898Z,95392.80
2019-02-08T21:50:21.691Z,95394.76
2019-02-08T21:52:50.287Z,95396.56
2019-02-08T21:55:23.412Z,95406.05
2019-02-08T21:57:51.998Z,95408.92
2019-02-08T22:00:22.374Z,95415.34
2019-02-08T22:02:50.963Z,95416.67
2019-02-08T22:05:22.431Z,95422.00
2019-02-08T22:07:51.010Z,95417.02
2019-02-08T22:10:19.595Z,95414.77
2019-02-08T22:12:48.180Z,95418.31
2019-02-08T22:15:19.504Z,95423.12
2019-02-08T22:17:48.120Z,95422.16
2019-02-08T22:20:19.846Z,95426.67
2019-02-08T22:22:48.518Z,95428.59
2019-02-08T22:25:19.656Z,95414.11
2019-02-08T22:27:48.419Z,95403.83
2019-02-08T22:30:20.115Z,95405.42
2019-02-08T22:32:49.398Z,95392.23
2019-02-08T22:35:18.987Z,95402.04
2019-02-08T22:37:47.568Z,95398.45
2019-02-08T22:40:19.265Z,95392.86
2019-02-08T22:42:47.844Z,95393.84
2019-02-08T22:45:40.593Z,95382.59
2019-02-08T22:48:09.517Z,95380.33
2019-02-08T22:50:38.096Z,95363.44
2019-02-08T22:53:07.570Z,95359.09
2019-02-08T22:55:36.652Z,95349.78
2019-02-08T22:58:06.836Z,95368.44
2019-02-08T23:00:39.870Z,95381.28
2019-02-08T23:03:11.141Z,95375.78
2019-02-08T23:05:45.355Z,95371.31
2019-02-08T23:08:11.016Z,95364.87
2019-02-08T23:10:39.600Z,95369.67
2019-02-08T23:13:11.321Z,95360.97
2019-02-08T23:15:39.969Z,95360.04
2019-02-08T23:18:12.276Z,95350.06
2019-02-08T23:20:40.858Z,95353.28
2019-02-08T23:23:09.551Z,95351.39
2019-02-08T23:25:38.302Z,95343.42
2019-02-08T23:28:07.166Z,95342.72
2019-02-08T23:30:35.878Z,95348.17
2019-02-08T23:33:04.959Z,95348.02
2019-02-08T23:35:33.545Z,95342.20
2019-02-08T23:38:02.123Z,95328.37
2019-02-08T23:40:30.706Z,95337.22
2019-02-08T23:42:59.283Z,95343.91
2019-02-08T23:45:27.876Z,95344.87
2019-02-08T23:47:56.467Z,95348.43
2019-02-08T23:50:25.795Z,95346.56
2019-02-08T23:52:54.375Z,95356.46
2019-02-08T23:55:24.351Z,95368.92
2019-02-08T23:57:52.972Z,95364.34
